Weather History for KHRX - September, 2012

Change the Weather History Date:

Sunday, September 2, 2012

  Actual Average (KAMA) Record (KAMA)
Temperature  
Mean Temperature 80 °F 74 °F  
Max Temperature 96 °F 87 °F 102 °F (1947)
Min Temperature 64 °F 61 °F 47 °F (1974)
Degree Days  
Heating Degree Days 0 0  
Month to date heating degree days 0  
Since 1 July heating degree days 1  
Cooling Degree Days 15 9  
Month to date cooling degree days 19  
Year to date cooling degree days 1211  
Growing Degree Days 30 (Base 50)    
Moisture  
Dew Point 50 °F    
Average Humidity 37    
Maximum Humidity 64    
Minimum Humidity 18    
Precipitation  
Precipitation 0.00 in 0.07 in 0.84 in (2001)
Month to date precipitation 0.14  
Year to date precipitation 15.41  
Snow  
Snow 0.00 in 0.00 in 0.00 in ()
Month to date snowfall 0.0  
Since 1 July snowfall 0.0  
Since 1 September snowfall 0.0  
Snow Depth -    
Sea Level Pressure  
Sea Level Pressure 30.08 in    
Wind  
Wind Speed 9 mph (SSW)    
Max Wind Speed 18 mph    
Max Gust Speed 26 mph    
Visibility 10 miles    
Events      
T = Trace of Precipitation, MM = Missing Value Source: NWS Daily Summary

Daily Weather History Graph

Daily Weather History Graph

Search for Another Location

Airport or City:

Trip Planner

Search our weather history database for the weather conditions in past years. The results will help you decide how hot, cold, wet, or windy it might be!

Date:

Astronomy

Sep. 02, 2012 Rise Set
Actual Time 7:23 AM CDT 8:13 PM CDT
Civil Twilight 6:57 AM CDT 8:39 PM CDT
Nautical Twilight 6:27 AM CDT 9:09 PM CDT
Astronomical Twilight 5:55 AM CDT 9:40 PM CDT
Moon 9:11 PM CDT (9/2) 9:25 AM CDT (9/2)
Length of Visible Light 13h 41m
Length of Day
12h 50m
Waning Gibbous, 95% of the Moon is Illuminated
Sep 2
Waning Gibbous
Sep 8
Last Quarter
Sep 15
New
Sep 22
First Quarter
Sep 29
Full

Hourly Weather History & Observations

Time (CDT) Temp. Heat Index Dew Point Humidity Pressure Visibility Wind Dir Wind Speed Gust Speed Precip Events Conditions
12:15 AM 71.6 °F - 46.4 °F 41% 30.10 in 10.0 mi SSW 8.1 mph - N/A   Clear
12:35 AM 71.6 °F - 46.4 °F 41% 30.10 in 10.0 mi South 8.1 mph - N/A   Clear
12:55 AM 71.6 °F - 46.4 °F 41% 30.10 in 10.0 mi SSW 9.2 mph - N/A   Clear
1:15 AM 71.6 °F - 48.2 °F 43% 30.10 in 10.0 mi SW 8.1 mph - N/A   Clear
1:35 AM 71.6 °F - 50.0 °F 46% 30.10 in 7.0 mi SSW 6.9 mph - N/A   Clear
1:55 AM 69.8 °F - 50.0 °F 49% 30.10 in 10.0 mi SSW 6.9 mph - N/A   Clear
2:15 AM 71.6 °F - 51.8 °F 50% 30.10 in 10.0 mi SSW 6.9 mph - N/A   Clear
2:35 AM 71.6 °F - 51.8 °F 50% 30.09 in 7.0 mi SW 6.9 mph - N/A   Clear
3:15 AM 69.8 °F - 51.8 °F 53% 30.09 in 7.0 mi SSW 5.8 mph - N/A   Clear
3:35 AM 68.0 °F - 51.8 °F 56% 30.10 in 7.0 mi SSW 3.5 mph - N/A   Clear
3:55 AM 68.0 °F - 51.8 °F 56% 30.10 in 5.0 mi Calm Calm - N/A   Haze
4:15 AM 66.2 °F - 51.8 °F 60% 30.10 in 7.0 mi SW 5.8 mph - N/A   Clear
4:35 AM 68.0 °F - 51.8 °F 56% 30.09 in 10.0 mi WSW 4.6 mph - N/A   Clear
4:55 AM 66.2 °F - 51.8 °F 60% 30.09 in 10.0 mi SW 5.8 mph - N/A   Clear
5:15 AM 68.0 °F - 51.8 °F 56% 30.09 in 10.0 mi SSW 3.5 mph - N/A   Clear
5:35 AM 66.2 °F - 51.8 °F 60% 30.10 in 10.0 mi SW 6.9 mph - N/A   Clear
5:55 AM 68.0 °F - 51.8 °F 56% 30.10 in 10.0 mi SSW 5.8 mph - N/A   Clear
6:15 AM 64.4 °F - 51.8 °F 64% 30.10 in 10.0 mi SSW 4.6 mph - N/A   Clear
6:35 AM 64.4 °F - 51.8 °F 64% 30.10 in 10.0 mi SSW 4.6 mph - N/A   Clear
6:55 AM 64.4 °F - 51.8 °F 64% 30.10 in 10.0 mi SSW 5.8 mph - N/A   Clear
7:15 AM 64.4 °F - 51.8 °F 64% 30.11 in 10.0 mi SW 5.8 mph - N/A   Clear
7:35 AM 64.4 °F - 51.8 °F 64% 30.12 in 7.0 mi WSW 5.8 mph - N/A   Clear
7:55 AM 64.4 °F - 51.8 °F 64% 30.13 in 5.0 mi Calm Calm - N/A   Haze
8:15 AM 66.2 °F - 51.8 °F 60% 30.14 in 7.0 mi SW 6.9 mph - N/A   Clear
8:35 AM 69.8 °F - 53.6 °F 56% 30.13 in 10.0 mi SW 5.8 mph - N/A   Clear
8:55 AM 73.4 °F - 53.6 °F 50% 30.13 in 10.0 mi WSW 9.2 mph - N/A   Clear
9:15 AM 77.0 °F - 53.6 °F 44% 30.13 in 10.0 mi WSW 10.4 mph - N/A   Clear
9:35 AM 78.8 °F - 53.6 °F 42% 30.13 in 10.0 mi WSW 10.4 mph - N/A   Clear
9:55 AM 82.4 °F 81.4 °F 53.6 °F 37% 30.13 in 10.0 mi West 10.4 mph - N/A   Clear
10:15 AM 84.2 °F - 51.8 °F 33% 30.13 in 10.0 mi WSW 9.2 mph - N/A   Clear
10:35 AM 86.0 °F - 51.8 °F 31% 30.13 in 10.0 mi SW 12.7 mph 17.3 mph N/A   Clear
10:55 AM 87.8 °F - 51.8 °F 29% 30.13 in 10.0 mi SW 13.8 mph 19.6 mph N/A   Clear
11:15 AM 87.8 °F - 51.8 °F 29% 30.14 in 10.0 mi SW 13.8 mph 19.6 mph N/A   Clear
11:35 AM 89.6 °F - 51.8 °F 27% 30.13 in 10.0 mi SW 16.1 mph 20.7 mph N/A   Clear
11:55 AM 89.6 °F - 51.8 °F 27% 30.13 in 10.0 mi SW 12.7 mph 21.9 mph N/A   Clear
12:15 PM 89.6 °F - 51.8 °F 27% 30.12 in 10.0 mi SSW 15.0 mph 19.6 mph N/A   Clear
12:35 PM 91.4 °F - 50.0 °F 24% 30.11 in 10.0 mi SSW 15.0 mph 19.6 mph N/A   Clear
12:55 PM 91.4 °F - 50.0 °F 24% 30.11 in 10.0 mi SW 16.1 mph 21.9 mph N/A   Clear
1:15 PM 93.2 °F - 50.0 °F 23% 30.10 in 10.0 mi SW 16.1 mph 26.5 mph N/A   Clear
1:35 PM 95.0 °F - 48.2 °F 20% 30.09 in 10.0 mi SSW 11.5 mph 23.0 mph N/A   Clear
1:55 PM 95.0 °F - 46.4 °F 19% 30.09 in 10.0 mi SSW 12.7 mph 24.2 mph N/A   Clear
2:15 PM 95.0 °F - 44.6 °F 18% 30.08 in 10.0 mi SSW 8.1 mph - N/A   Clear
2:35 PM 95.0 °F - 46.4 °F 19% 30.07 in 10.0 mi SSW 10.4 mph 20.7 mph N/A   Clear
2:55 PM 95.0 °F - 50.0 °F 22% 30.07 in 10.0 mi South 15.0 mph 21.9 mph N/A   Clear
3:15 PM 95.0 °F - 50.0 °F 22% 30.06 in 10.0 mi South 12.7 mph 24.2 mph N/A   Clear
3:35 PM 95.0 °F - 48.2 °F 20% 30.05 in 10.0 mi SSW 15.0 mph 21.9 mph N/A   Clear
3:55 PM 95.0 °F - 46.4 °F 19% 30.05 in 10.0 mi SSW 17.3 mph 23.0 mph N/A   Clear
4:15 PM 96.8 °F - 46.4 °F 18% 30.04 in 10.0 mi South 17.3 mph 24.2 mph N/A   Clear
4:35 PM 95.0 °F - 46.4 °F 19% 30.04 in 10.0 mi South 17.3 mph 23.0 mph N/A   Clear
4:55 PM 95.0 °F - 46.4 °F 19% 30.03 in 10.0 mi South 16.1 mph 20.7 mph N/A   Clear
5:15 PM 96.8 °F - 46.4 °F 18% 30.03 in 10.0 mi South 18.4 mph 26.5 mph N/A   Clear
5:35 PM 95.0 °F - 46.4 °F 19% 30.03 in 10.0 mi SSW 12.7 mph 20.7 mph N/A   Clear
5:55 PM 95.0 °F - 46.4 °F 19% 30.03 in 10.0 mi South 11.5 mph 18.4 mph N/A   Clear
6:15 PM 95.0 °F - 46.4 °F 19% 30.02 in 10.0 mi SSW 13.8 mph 21.9 mph N/A   Clear
6:35 PM 93.2 °F - 46.4 °F 20% 30.02 in 10.0 mi South 12.7 mph 23.0 mph N/A   Clear
6:55 PM 93.2 °F - 46.4 °F 20% 30.02 in 10.0 mi South 15.0 mph 19.6 mph N/A   Clear
7:15 PM 91.4 °F - 46.4 °F 21% 30.02 in 10.0 mi South 18.4 mph - N/A   Clear
7:35 PM 89.6 °F - 46.4 °F 22% 30.02 in 10.0 mi South 15.0 mph - N/A   Clear
7:55 PM 89.6 °F - 46.4 °F 22% 30.02 in 10.0 mi South 10.4 mph - N/A   Clear
8:15 PM 86.0 °F - 46.4 °F 25% 30.02 in 10.0 mi South 8.1 mph - N/A   Clear
8:55 PM 86.0 °F - 46.4 °F 25% 30.03 in 10.0 mi South 11.5 mph - N/A   Clear
9:15 PM 82.4 °F - 48.2 °F 30% 30.03 in 10.0 mi South 11.5 mph - N/A   Clear
9:35 PM 82.4 °F - 48.2 °F 30% 30.04 in 10.0 mi South 11.5 mph - N/A   Clear
9:55 PM 80.6 °F - 50.0 °F 34% 30.04 in 10.0 mi South 10.4 mph - N/A   Clear
10:15 PM 78.8 °F - 50.0 °F 36% 30.05 in 10.0 mi South 10.4 mph - N/A   Clear
10:35 PM 77.0 °F - 50.0 °F 39% 30.05 in 10.0 mi South 9.2 mph - N/A   Clear
11:15 PM 75.2 °F - 50.0 °F 41% 30.05 in 10.0 mi South 6.9 mph - N/A   Clear
11:35 PM 75.2 °F - 50.0 °F 41% 30.05 in 10.0 mi South 8.1 mph - N/A   Clear
11:55 PM 73.4 °F - 50.0 °F 44% 30.06 in 10.0 mi SSW 6.9 mph - N/A   Clear